createdAt,value
2023-04-10T00:01:25.350Z,145.43
2023-04-10T00:03:53.830Z,145.57
2023-04-10T00:06:23.277Z,145.83
2023-04-10T00:08:51.057Z,145.37
2023-04-10T00:11:18.853Z,145.67
2023-04-10T00:13:46.682Z,145.67
2023-04-10T00:16:14.505Z,145.40
2023-04-10T00:18:42.326Z,145.70
2023-04-10T00:21:10.160Z,145.67
2023-04-10T00:23:39.579Z,145.20
2023-04-10T00:26:07.589Z,145.80
2023-04-10T00:28:37.908Z,145.50
2023-04-10T00:31:06.413Z,145.33
2023-04-10T00:33:34.496Z,145.63
2023-04-10T00:36:02.386Z,144.73
2023-04-10T00:38:30.542Z,145.40
2023-04-10T00:40:59.679Z,144.83
2023-04-10T00:43:27.497Z,144.97
2023-04-10T00:45:55.462Z,144.40
2023-04-10T00:48:23.347Z,145.20
2023-04-10T00:50:51.197Z,144.63
2023-04-10T00:53:19.145Z,145.13
2023-04-10T00:55:47.615Z,144.83
2023-04-10T00:58:17.011Z,145.17
2023-04-10T01:00:45.342Z,145.07
2023-04-10T01:03:14.054Z,144.33
2023-04-10T01:05:48.421Z,145.27
2023-04-10T01:08:27.669Z,145.43
2023-04-10T01:11:03.032Z,145.47
2023-04-10T01:13:40.266Z,145.30
2023-04-10T01:16:17.044Z,145.43
2023-04-10T01:18:47.665Z,145.40
2023-04-10T01:21:17.124Z,145.57
2023-04-10T01:24:08.411Z,144.63
2023-04-10T01:26:53.459Z,144.67
2023-04-10T01:29:26.764Z,144.90
2023-04-10T01:31:59.163Z,145.03
2023-04-10T01:34:33.316Z,144.63
2023-04-10T01:37:05.184Z,144.97
2023-04-10T01:39:37.113Z,145.27
2023-04-10T01:42:07.790Z,144.87
2023-04-10T01:44:43.169Z,145.00
2023-04-10T01:47:11.432Z,144.20
2023-04-10T01:49:44.344Z,144.27
2023-04-10T01:52:12.921Z,144.90
2023-04-10T01:54:43.224Z,144.73
2023-04-10T01:57:15.386Z,144.43
2023-04-10T02:00:00.269Z,144.57
2023-04-10T02:02:31.955Z,144.40
2023-04-10T02:05:00.024Z,144.17
2023-04-10T02:07:33.040Z,144.57
2023-04-10T02:10:06.011Z,144.20
2023-04-10T02:12:40.106Z,144.87
2023-04-10T02:15:11.524Z,143.77
2023-04-10T02:17:40.996Z,144.43
2023-04-10T02:20:11.559Z,144.40
2023-04-10T02:22:43.743Z,143.40
2023-04-10T02:25:12.171Z,144.07
2023-04-10T02:27:40.289Z,144.67
2023-04-10T02:30:10.374Z,144.63
2023-04-10T02:32:38.689Z,143.83
2023-04-10T02:35:09.717Z,144.60
2023-04-10T02:37:38.706Z,144.43
2023-04-10T02:40:08.371Z,144.20
2023-04-10T02:42:46.109Z,143.77
2023-04-10T02:45:15.316Z,144.10
2023-04-10T02:47:45.019Z,143.50
2023-04-10T02:50:12.916Z,143.23
2023-04-10T02:52:44.237Z,144.60
2023-04-10T02:55:12.608Z,143.83
2023-04-10T02:57:42.417Z,144.00
2023-04-10T03:00:12.172Z,143.77
2023-04-10T03:03:07.749Z,143.77
2023-04-10T03:05:44.050Z,144.00
2023-04-10T03:08:11.915Z,144.23
2023-04-10T03:10:40.214Z,143.37
2023-04-10T03:13:08.359Z,143.67
2023-04-10T03:15:36.179Z,143.77
2023-04-10T03:18:04.199Z,143.67
2023-04-10T03:20:33.513Z,143.27
2023-04-10T03:23:01.606Z,143.07
2023-04-10T03:25:29.427Z,143.07
2023-04-10T03:27:57.363Z,143.17
2023-04-10T03:30:25.409Z,143.23
2023-04-10T03:32:53.624Z,144.13
2023-04-10T03:35:21.695Z,143.67
2023-04-10T03:37:50.912Z,143.77
2023-04-10T03:40:20.688Z,144.17
2023-04-10T03:42:48.992Z,143.63
2023-04-10T03:45:17.055Z,143.47
2023-04-10T03:47:44.965Z,143.60
2023-04-10T03:50:16.635Z,143.63
2023-04-10T03:52:54.435Z,144.07
2023-04-10T03:55:24.018Z,144.13
2023-04-10T03:57:52.783Z,144.10
2023-04-10T04:00:26.331Z,143.37
2023-04-10T04:03:06.999Z,143.73
2023-04-10T04:06:01.951Z,143.60
2023-04-10T04:08:43.855Z,143.50
2023-04-10T04:11:38.469Z,143.90
2023-04-10T04:14:18.323Z,143.33
2023-04-10T04:17:12.606Z,144.47
2023-04-10T04:19:56.140Z,142.97
2023-04-10T04:22:34.765Z,143.43
2023-04-10T04:25:16.361Z,143.77
2023-04-10T04:28:17.359Z,143.20
2023-04-10T04:31:14.757Z,142.97
2023-04-10T04:34:02.611Z,143.03
2023-04-10T04:36:51.098Z,143.20
2023-04-10T04:39:39.808Z,141.80
2023-04-10T04:42:35.774Z,142.03
2023-04-10T04:45:30.929Z,141.57
2023-04-10T04:48:17.121Z,140.93
2023-04-10T04:50:55.637Z,141.23
2023-04-10T04:53:48.599Z,140.80
2023-04-10T04:56:48.822Z,139.87
2023-04-10T04:59:45.454Z,140.50
2023-04-10T05:02:42.360Z,140.70
2023-04-10T05:05:42.445Z,140.07
2023-04-10T05:08:13.273Z,140.70
2023-04-10T05:10:47.717Z,140.47
2023-04-10T05:13:35.407Z,140.17
2023-04-10T05:16:25.563Z,140.33
2023-04-10T05:19:12.015Z,140.70
2023-04-10T05:21:54.250Z,140.10
2023-04-10T05:24:44.316Z,140.53
2023-04-10T05:27:12.140Z,140.30
2023-04-10T05:30:03.587Z,139.60
2023-04-10T05:32:43.472Z,139.50
2023-04-10T05:35:23.274Z,140.87
2023-04-10T05:38:17.350Z,140.50
2023-04-10T05:40:56.666Z,139.57
2023-04-10T05:43:36.538Z,140.80
2023-04-10T05:46:23.254Z,140.53
2023-04-10T05:49:16.722Z,140.30
2023-04-10T05:52:07.437Z,140.43
2023-04-10T05:55:02.565Z,139.67
2023-04-10T05:57:53.774Z,140.17
2023-04-10T06:00:44.727Z,141.03
2023-04-10T06:03:45.597Z,140.40
2023-04-10T06:06:15.921Z,140.27
2023-04-10T06:08:44.116Z,140.47
2023-04-10T06:11:11.930Z,140.33
2023-04-10T06:13:41.780Z,140.87
2023-04-10T06:16:10.393Z,140.43
2023-04-10T06:18:39.396Z,140.83
2023-04-10T06:21:07.863Z,141.17
2023-04-10T06:23:37.165Z,141.53
2023-04-10T06:26:05.612Z,140.23
2023-04-10T06:28:33.490Z,141.17
2023-04-10T06:31:04.351Z,141.53
2023-04-10T06:33:36.460Z,142.37
2023-04-10T06:36:06.263Z,142.80
2023-04-10T06:38:40.489Z,143.03
2023-04-10T06:41:08.536Z,143.37
2023-04-10T06:43:37.919Z,143.23
2023-04-10T06:46:06.248Z,144.67
2023-04-10T06:48:34.771Z,144.07
2023-04-10T06:51:02.762Z,144.67
2023-04-10T06:53:30.922Z,145.13
2023-04-10T06:56:02.987Z,145.83
2023-04-10T06:58:31.339Z,146.87
2023-04-10T07:01:04.155Z,146.90
2023-04-10T07:03:32.315Z,146.87
2023-04-10T07:06:01.817Z,147.63
2023-04-10T07:08:29.654Z,148.03
2023-04-10T07:10:58.722Z,147.67
2023-04-10T07:13:28.193Z,148.13
2023-04-10T07:15:56.120Z,148.67
2023-04-10T07:18:23.944Z,148.00
2023-04-10T07:20:52.559Z,148.10
2023-04-10T07:23:20.563Z,149.43
2023-04-10T07:25:48.394Z,149.50
2023-04-10T07:28:16.178Z,150.83
2023-04-10T07:30:45.398Z,150.30
2023-04-10T07:33:13.621Z,152.10
2023-04-10T07:35:41.624Z,151.27
2023-04-10T07:38:09.503Z,151.57
2023-04-10T07:40:37.292Z,151.73
2023-04-10T07:43:05.243Z,150.90
2023-04-10T07:45:33.452Z,150.73
2023-04-10T07:48:03.278Z,151.70
2023-04-10T07:50:31.370Z,150.97
2023-04-10T07:53:03.311Z,150.47
2023-04-10T07:55:31.134Z,151.40
2023-04-10T07:57:58.957Z,151.10
2023-04-10T08:00:26.777Z,151.60
2023-04-10T08:02:54.825Z,151.70
2023-04-10T08:05:24.248Z,152.40
2023-04-10T08:07:52.182Z,152.20
2023-04-10T08:10:20.282Z,151.77
2023-04-10T08:12:48.130Z,153.17
2023-04-10T08:15:16.151Z,152.73
2023-04-10T08:17:44.045Z,152.80
2023-04-10T08:20:13.054Z,153.07
2023-04-10T08:22:42.211Z,152.77
2023-04-10T08:25:10.840Z,152.53
2023-04-10T08:27:38.813Z,153.37
2023-04-10T08:30:07.687Z,153.90
2023-04-10T08:32:36.684Z,153.17
2023-04-10T08:35:04.968Z,152.37
2023-04-10T08:37:32.806Z,153.03
2023-04-10T08:40:02.101Z,151.63
2023-04-10T08:42:31.223Z,152.00
2023-04-10T08:44:59.032Z,152.03
2023-04-10T08:47:29.477Z,152.20
2023-04-10T08:49:58.719Z,151.97
2023-04-10T08:52:28.903Z,152.00
2023-04-10T08:54:58.389Z,152.37
2023-04-10T08:57:27.983Z,152.53
2023-04-10T08:59:56.017Z,152.70
2023-04-10T09:02:25.228Z,152.60
2023-04-10T09:04:55.182Z,153.13
2023-04-10T09:07:24.024Z,152.87
2023-04-10T09:09:51.886Z,153.53
2023-04-10T09:12:19.806Z,153.30
2023-04-10T09:14:53.181Z,153.00
2023-04-10T09:17:22.711Z,153.23
2023-04-10T09:19:53.482Z,153.63
2023-04-10T09:22:32.456Z,153.87
2023-04-10T09:25:01.483Z,153.70
2023-04-10T09:27:35.098Z,153.87
2023-04-10T09:30:05.743Z,153.60
2023-04-10T09:32:42.018Z,153.60
2023-04-10T09:35:11.185Z,153.50
2023-04-10T09:37:41.073Z,154.17
2023-04-10T09:40:21.292Z,153.63
2023-04-10T09:42:49.172Z,153.77
2023-04-10T09:45:19.868Z,153.63
2023-04-10T09:48:04.073Z,154.03
2023-04-10T09:50:40.240Z,154.17
2023-04-10T09:53:09.070Z,153.87
2023-04-10T09:55:37.642Z,153.77
2023-04-10T09:58:06.794Z,153.67
2023-04-10T10:00:41.956Z,154.00
2023-04-10T10:03:11.803Z,154.20
2023-04-10T10:05:41.986Z,152.63
2023-04-10T10:08:11.695Z,152.30
2023-04-10T10:10:45.564Z,151.97
2023-04-10T10:13:18.812Z,153.33
2023-04-10T10:15:55.689Z,153.70
2023-04-10T10:18:32.766Z,153.37
2023-04-10T10:21:01.250Z,153.27
2023-04-10T10:23:29.493Z,153.07
2023-04-10T10:25:59.877Z,153.67
2023-04-10T10:28:32.298Z,154.10
2023-04-10T10:31:02.364Z,153.83
2023-04-10T10:33:31.683Z,153.13
2023-04-10T10:36:00.564Z,153.60
2023-04-10T10:38:28.651Z,153.27
2023-04-10T10:41:10.380Z,153.40
2023-04-10T10:43:51.614Z,153.13
2023-04-10T10:46:26.598Z,153.87
2023-04-10T10:48:57.904Z,153.27
2023-04-10T10:51:43.416Z,154.30
2023-04-10T10:54:29.546Z,154.20
2023-04-10T10:56:57.539Z,153.70
2023-04-10T10:59:55.611Z,154.30
2023-04-10T11:02:25.202Z,154.07
2023-04-10T11:04:53.117Z,153.57
2023-04-10T11:07:20.928Z,153.53
2023-04-10T11:09:53.098Z,153.47
2023-04-10T11:12:24.284Z,153.23
2023-04-10T11:15:00.186Z,153.13
2023-04-10T11:17:51.981Z,153.40
2023-04-10T11:20:22.083Z,153.63
2023-04-10T11:23:10.030Z,153.73
2023-04-10T11:25:51.786Z,153.80
2023-04-10T11:28:35.918Z,154.17
2023-04-10T11:31:19.191Z,153.43
2023-04-10T11:33:49.255Z,153.97
2023-04-10T11:36:18.471Z,153.60
2023-04-10T11:38:56.920Z,154.20
2023-04-10T11:41:30.307Z,154.83
2023-04-10T11:43:58.548Z,154.07
2023-04-10T11:46:26.516Z,154.23
2023-04-10T11:48:57.180Z,153.53
2023-04-10T11:51:27.130Z,154.07
2023-04-10T11:54:06.352Z,154.90
2023-04-10T11:56:34.143Z,154.27
2023-04-10T11:59:07.007Z,153.33
2023-04-10T12:01:35.325Z,154.03
2023-04-10T12:04:04.770Z,154.40
2023-04-10T12:06:32.899Z,154.63
2023-04-10T12:09:00.722Z,154.30
2023-04-10T12:11:29.536Z,154.23
2023-04-10T12:13:58.810Z,154.97
2023-04-10T12:16:27.295Z,154.73
2023-04-10T12:18:55.670Z,154.83
2023-04-10T12:21:24.924Z,154.27
2023-04-10T12:23:53.080Z,154.97
2023-04-10T12:26:21.505Z,153.87
2023-04-10T12:28:54.289Z,155.33
2023-04-10T12:31:28.977Z,154.80
2023-04-10T12:33:57.790Z,154.57
2023-04-10T12:36:30.040Z,154.57
2023-04-10T12:38:58.466Z,154.93
2023-04-10T12:41:28.113Z,155.13
2023-04-10T12:44:08.273Z,154.60
2023-04-10T12:46:36.820Z,154.57
2023-04-10T12:49:11.894Z,154.63
2023-04-10T12:51:45.454Z,154.37
2023-04-10T12:54:13.407Z,154.50
2023-04-10T12:56:47.160Z,154.20
2023-04-10T12:59:14.949Z,154.57
2023-04-10T13:01:42.824Z,154.40
2023-04-10T13:04:11.256Z,154.53
2023-04-10T13:06:45.198Z,154.73
2023-04-10T13:09:13.395Z,154.87
2023-04-10T13:11:41.321Z,154.40
2023-04-10T13:14:09.780Z,153.80
2023-04-10T13:16:38.068Z,153.83
2023-04-10T13:19:05.912Z,154.70
2023-04-10T13:21:33.695Z,154.63
2023-04-10T13:24:02.898Z,154.20
2023-04-10T13:26:30.706Z,154.93
2023-04-10T13:28:58.508Z,155.20
2023-04-10T13:31:26.342Z,154.67
2023-04-10T13:33:54.146Z,155.20
2023-04-10T13:36:22.033Z,154.33
2023-04-10T13:38:49.858Z,154.77
2023-04-10T13:41:20.386Z,154.27
2023-04-10T13:43:48.215Z,154.87
2023-04-10T13:46:16.606Z,155.00
2023-04-10T13:48:44.516Z,155.27
2023-04-10T13:51:12.331Z,154.57
2023-04-10T13:53:40.239Z,155.27
2023-04-10T13:56:09.297Z,155.07
2023-04-10T13:58:38.429Z,154.13
2023-04-10T14:01:06.565Z,156.30
2023-04-10T14:03:34.524Z,155.33
2023-04-10T14:06:02.494Z,155.07
2023-04-10T14:08:30.300Z,154.73
2023-04-10T14:10:58.144Z,155.13
2023-04-10T14:13:26.107Z,155.47
2023-04-10T14:15:55.228Z,154.87
2023-04-10T14:18:23.007Z,154.93
2023-04-10T14:20:50.802Z,155.63
2023-04-10T14:23:18.726Z,154.90
2023-04-10T14:25:46.723Z,155.40
2023-04-10T14:28:17.706Z,154.70
2023-04-10T14:30:45.774Z,154.20
2023-04-10T14:33:14.995Z,155.33
2023-04-10T14:35:42.944Z,154.90
2023-04-10T14:38:11.077Z,154.47
2023-04-10T14:40:40.561Z,154.93
2023-04-10T14:43:08.769Z,155.03
2023-04-10T14:45:36.637Z,154.03
2023-04-10T14:48:04.848Z,155.23
2023-04-10T14:50:34.178Z,155.20
2023-04-10T14:53:01.969Z,154.53
2023-04-10T14:55:30.281Z,154.33
2023-04-10T14:57:58.979Z,154.30
2023-04-10T15:00:29.480Z,155.07
2023-04-10T15:02:58.104Z,155.00
2023-04-10T15:05:27.113Z,154.40
2023-04-10T15:07:56.260Z,154.17
2023-04-10T15:10:24.325Z,154.40
2023-04-10T15:12:52.128Z,154.20
2023-04-10T15:15:19.928Z,153.90
2023-04-10T15:17:47.776Z,154.40
2023-04-10T15:20:15.609Z,153.57
2023-04-10T15:22:44.911Z,154.47
2023-04-10T15:25:14.699Z,153.60
2023-04-10T15:27:42.503Z,153.53
2023-04-10T15:30:10.920Z,154.70
2023-04-10T15:32:38.867Z,154.67
2023-04-10T15:35:07.837Z,154.20
2023-04-10T15:37:36.567Z,153.70
2023-04-10T15:40:06.080Z,154.20
2023-04-10T15:42:35.502Z,152.87
2023-04-10T15:45:03.372Z,153.73
2023-04-10T15:47:31.294Z,154.07
2023-04-10T15:49:59.204Z,153.33
2023-04-10T15:52:29.086Z,153.23
2023-04-10T15:54:57.833Z,154.07
2023-04-10T15:57:25.715Z,153.77
2023-04-10T15:59:56.570Z,153.07
2023-04-10T16:02:24.603Z,153.07
2023-04-10T16:04:52.774Z,153.10
2023-04-10T16:07:20.914Z,153.30
2023-04-10T16:09:48.731Z,153.80
2023-04-10T16:12:16.721Z,153.47
2023-04-10T16:14:44.546Z,153.73
2023-04-10T16:17:13.698Z,153.23
2023-04-10T16:19:41.486Z,153.97
2023-04-10T16:22:09.317Z,153.73
2023-04-10T16:24:37.129Z,153.23
2023-04-10T16:27:05.032Z,154.27
2023-04-10T16:29:32.878Z,152.87
2023-04-10T16:32:00.683Z,153.10
2023-04-10T16:34:29.835Z,153.47
2023-04-10T16:36:57.647Z,153.63
2023-04-10T16:39:25.673Z,153.37
2023-04-10T16:41:53.785Z,153.00
2023-04-10T16:44:21.567Z,153.07
2023-04-10T16:46:49.470Z,153.03
2023-04-10T16:49:17.287Z,153.30
2023-04-10T16:51:46.428Z,153.37
2023-04-10T16:54:14.359Z,153.07
2023-04-10T16:56:42.584Z,152.87
2023-04-10T16:59:10.516Z,152.80
2023-04-10T17:01:40.397Z,152.63
2023-04-10T17:04:09.129Z,153.60
2023-04-10T17:06:37.143Z,152.40
2023-04-10T17:09:06.533Z,152.70
2023-04-10T17:11:34.340Z,153.53
2023-04-10T17:14:03.023Z,153.00
2023-04-10T17:16:31.133Z,153.93
2023-04-10T17:18:59.002Z,153.17
2023-04-10T17:21:28.094Z,152.97
2023-04-10T17:23:55.912Z,153.20
2023-04-10T17:26:25.227Z,153.37
2023-04-10T17:28:53.164Z,152.50
2023-04-10T17:31:21.246Z,152.27
2023-04-10T17:33:49.059Z,153.30
2023-04-10T17:36:16.925Z,152.00
2023-04-10T17:38:44.773Z,152.97
2023-04-10T17:41:15.705Z,152.63
2023-04-10T17:43:44.851Z,152.13
2023-04-10T17:46:14.783Z,152.57
2023-04-10T17:48:42.758Z,152.33
2023-04-10T17:51:11.142Z,152.90
2023-04-10T17:53:38.983Z,152.87
2023-04-10T17:56:08.379Z,152.90
2023-04-10T17:58:36.155Z,153.07
2023-04-10T18:01:07.163Z,152.23
2023-04-10T18:03:35.025Z,152.93
2023-04-10T18:06:02.898Z,152.60
2023-04-10T18:08:30.717Z,152.80
2023-04-10T18:10:58.599Z,153.40
2023-04-10T18:13:26.385Z,152.30
2023-04-10T18:15:54.195Z,151.57
2023-04-10T18:18:23.310Z,151.70
2023-04-10T18:20:51.116Z,151.20
2023-04-10T18:23:18.967Z,151.67
2023-04-10T18:25:53.921Z,151.20
2023-04-10T18:28:22.044Z,151.10
2023-04-10T18:30:50.004Z,151.20
2023-04-10T18:33:22.201Z,150.87
2023-04-10T18:35:51.683Z,150.13
2023-04-10T18:38:19.766Z,150.50
2023-04-10T18:40:47.673Z,149.83
2023-04-10T18:43:15.499Z,150.37
2023-04-10T18:45:44.357Z,150.10
2023-04-10T18:48:12.205Z,150.20
2023-04-10T18:50:40.007Z,149.73
2023-04-10T18:53:09.154Z,149.30
2023-04-10T18:55:36.985Z,149.87
2023-04-10T18:58:04.840Z,149.93
2023-04-10T19:00:34.012Z,149.27
2023-04-10T19:03:02.247Z,149.50
2023-04-10T19:05:32.369Z,149.73
2023-04-10T19:08:04.108Z,149.47
2023-04-10T19:10:33.684Z,149.10
2023-04-10T19:13:01.497Z,149.17
2023-04-10T19:15:29.396Z,149.03
2023-04-10T19:17:57.346Z,149.53
2023-04-10T19:20:50.738Z,149.53
2023-04-10T19:23:13.724Z,148.97
2023-04-10T19:25:43.604Z,148.37
2023-04-10T19:28:11.465Z,148.20
2023-04-10T19:30:39.300Z,148.10
2023-04-10T19:33:07.365Z,148.70
2023-04-10T19:35:35.239Z,148.73
2023-04-10T19:38:03.093Z,148.93
2023-04-10T19:40:31.466Z,148.20
2023-04-10T19:43:01.761Z,148.50
2023-04-10T19:45:32.074Z,148.43
2023-04-10T19:47:59.939Z,148.90
2023-04-10T19:50:30.253Z,148.03
2023-04-10T19:52:59.447Z,147.90
2023-04-10T19:55:27.892Z,147.93
2023-04-10T19:57:55.849Z,147.83
2023-04-10T20:00:25.097Z,147.20
2023-04-10T20:02:53.154Z,148.50
2023-04-10T20:05:21.210Z,147.13
2023-04-10T20:07:49.235Z,148.13
2023-04-10T20:10:17.039Z,147.87
2023-04-10T20:12:44.805Z,147.77
2023-04-10T20:15:13.359Z,147.77
2023-04-10T20:17:42.531Z,148.13
2023-04-10T20:20:12.556Z,147.57
2023-04-10T20:22:40.346Z,146.50
2023-04-10T20:25:09.108Z,147.20
2023-04-10T20:27:36.977Z,147.57
2023-04-10T20:30:05.670Z,147.30
2023-04-10T20:32:33.727Z,147.50
2023-04-10T20:35:02.948Z,147.30
2023-04-10T20:37:30.758Z,147.47
2023-04-10T20:39:58.566Z,146.93
2023-04-10T20:42:26.352Z,147.70
2023-04-10T20:44:55.281Z,147.20
2023-04-10T20:47:23.126Z,146.83
2023-04-10T20:49:50.934Z,146.43
2023-04-10T20:52:20.070Z,146.37
2023-04-10T20:54:47.906Z,147.10
2023-04-10T20:57:15.717Z,146.87
2023-04-10T20:59:43.706Z,146.27
2023-04-10T21:02:11.594Z,146.87
2023-04-10T21:04:39.426Z,146.20
2023-04-10T21:07:07.435Z,146.73
2023-04-10T21:09:36.591Z,146.50
2023-04-10T21:12:05.704Z,146.37
2023-04-10T21:14:35.663Z,146.73
2023-04-10T21:17:03.667Z,146.47
2023-04-10T21:19:31.467Z,146.43
2023-04-10T21:21:59.287Z,145.97
2023-04-10T21:24:27.112Z,146.67
2023-04-10T21:26:56.267Z,146.07
2023-04-10T21:29:24.917Z,146.43
2023-04-10T21:31:52.816Z,145.47
2023-04-10T21:34:20.633Z,146.23
2023-04-10T21:36:48.510Z,146.50
2023-04-10T21:39:16.290Z,145.90
2023-04-10T21:41:45.281Z,146.10
2023-04-10T21:44:14.411Z,147.10
2023-04-10T21:46:42.296Z,146.33
2023-04-10T21:49:10.224Z,146.20
2023-04-10T21:51:38.192Z,145.93
2023-04-10T21:54:06.112Z,146.17
2023-04-10T21:56:35.395Z,146.23
2023-04-10T21:59:03.738Z,146.03
2023-04-10T22:01:32.911Z,145.73
2023-04-10T22:04:00.907Z,144.67
2023-04-10T22:06:28.794Z,145.73
2023-04-10T22:08:56.759Z,144.90
2023-04-10T22:11:24.669Z,145.20
2023-04-10T22:13:53.584Z,145.40
2023-04-10T22:16:21.516Z,145.13
2023-04-10T22:18:50.704Z,145.43
2023-04-10T22:21:18.514Z,145.10
2023-04-10T22:23:46.306Z,145.33
2023-04-10T22:26:14.138Z,145.03
2023-04-10T22:28:41.935Z,144.40
2023-04-10T22:31:16.199Z,145.13
2023-04-10T22:33:44.282Z,145.20
2023-04-10T22:36:14.077Z,144.77
2023-04-10T22:38:41.905Z,144.20
2023-04-10T22:41:10.792Z,144.03
2023-04-10T22:43:38.617Z,144.60
2023-04-10T22:46:06.741Z,144.50
2023-04-10T22:48:34.623Z,145.07
2023-04-10T22:51:02.619Z,144.97
2023-04-10T22:53:31.738Z,144.47
2023-04-10T22:55:59.530Z,144.67
2023-04-10T22:58:27.328Z,144.90
2023-04-10T23:00:55.127Z,144.83
2023-04-10T23:03:23.146Z,144.73
2023-04-10T23:05:51.573Z,144.83
2023-04-10T23:08:19.357Z,144.43
2023-04-10T23:10:48.522Z,144.33
2023-04-10T23:13:16.304Z,144.30
2023-04-10T23:15:49.909Z,144.33
2023-04-10T23:18:17.825Z,144.00
2023-04-10T23:20:45.670Z,144.00
2023-04-10T23:23:13.505Z,143.73
2023-04-10T23:25:41.389Z,144.50
2023-04-10T23:28:10.750Z,144.23
2023-04-10T23:30:38.549Z,144.37
2023-04-10T23:33:06.402Z,144.70
2023-04-10T23:35:34.303Z,143.97
2023-04-10T23:38:02.154Z,144.17
2023-04-10T23:40:29.968Z,144.60
2023-04-10T23:42:57.738Z,144.57
2023-04-10T23:45:26.986Z,144.57
2023-04-10T23:47:54.906Z,144.03
2023-04-10T23:50:22.784Z,144.63
2023-04-10T23:52:50.819Z,144.10
2023-04-10T23:55:19.104Z,144.40
2023-04-10T23:57:46.891Z,144.67
